Time;durP1;ratioP1;P1;durP2;ratioP2;P2;SDS_P1;SDS_P2;PMS_P1;PMS_P2;Temp;Humidity;BMP_temperature;BMP_pressure;BME280_temperature;BME280_humidity;BME280_pressure;Samples;Min_cycle;Max_cycle;Signal;HPM_P1;HPM_P2
2021/01/24 00:02:17;;;;;;;2.17;1.97;;;11.70;51.20;;;;;;5031475;28;20201;-42
2021/01/24 00:04:42;;;;;;;2.37;1.87;;;11.50;52.00;;;;;;5027691;28;20194;-42
2021/01/24 00:07:08;;;;;;;2.20;1.87;;;11.40;52.30;;;;;;5030654;28;20189;-42
2021/01/24 00:09:34;;;;;;;1.97;1.77;;;11.30;52.70;;;;;;5029844;28;20591;-42
2021/01/24 00:12:00;;;;;;;2.20;1.97;;;11.50;53.50;;;;;;5022594;28;20257;-42
2021/01/24 00:14:25;;;;;;;1.90;1.70;;;11.80;53.30;;;;;;5024025;28;20533;-42
2021/01/24 00:16:51;;;;;;;2.80;2.13;;;12.00;52.40;;;;;;5026294;28;20202;-42
2021/01/24 00:19:16;;;;;;;2.23;2.10;;;11.80;51.60;;;;;;5028511;28;20195;-42
2021/01/24 00:21:42;;;;;;;2.10;1.90;;;11.70;51.80;;;;;;5029267;28;20649;-43
2021/01/24 00:24:08;;;;;;;1.93;1.83;;;11.40;52.20;;;;;;5025096;28;20193;-42
2021/01/24 00:26:33;;;;;;;1.93;1.77;;;11.30;52.90;;;;;;5026934;28;20198;-42
2021/01/24 00:28:59;;;;;;;1.80;1.70;;;11.10;53.10;;;;;;5028352;28;20264;-42
2021/01/24 00:31:25;;;;;;;1.83;1.43;;;10.90;54.30;;;;;;5030491;28;20703;-42
2021/01/24 00:33:50;;;;;;;1.80;1.70;;;10.80;53.80;;;;;;5030682;28;20548;-42
2021/01/24 00:36:19;;;;;;;2.00;1.80;;;10.80;54.00;;;;;;5031028;28;20201;-42
2021/01/24 00:38:45;;;;;;;2.33;2.13;;;10.60;53.70;;;;;;5023058;28;20276;-42
2021/01/24 00:41:10;;;;;;;2.07;1.87;;;10.60;54.00;;;;;;5028707;28;21109;-42
2021/01/24 00:43:36;;;;;;;1.63;1.53;;;10.60;54.40;;;;;;5027833;28;20194;-42
2021/01/24 00:46:02;;;;;;;3.90;1.70;;;10.20;54.90;;;;;;5030356;28;20285;-42
2021/01/24 00:48:35;;;;;;;1.60;1.50;;;10.30;55.10;;;;;;5030685;28;20228;-42
2021/01/24 00:51:02;;;;;;;2.23;2.03;;;10.40;55.10;;;;;;5024851;28;20436;-42
2021/01/24 00:53:27;;;;;;;2.03;1.53;;;10.60;54.90;;;;;;5028596;28;20513;-42
2021/01/24 00:55:54;;;;;;;1.57;1.47;;;10.70;54.50;;;;;;5029210;28;20436;-42
2021/01/24 00:58:20;;;;;;;1.77;1.67;;;10.60;54.80;;;;;;5028971;28;20201;-42
2021/01/24 01:00:46;;;;;;;1.63;1.53;;;10.90;55.20;;;;;;5028133;28;20578;-42
2021/01/24 01:03:11;;;;;;;1.63;1.53;;;11.20;54.70;;;;;;5022068;28;20436;-42
2021/01/24 01:05:41;;;;;;;1.93;1.70;;;11.40;54.30;;;;;;5029274;28;20872;-42
2021/01/24 01:08:07;;;;;;;1.70;1.60;;;11.70;54.00;;;;;;5025740;28;20189;-42
2021/01/24 01:10:36;;;;;;;1.33;1.30;;;11.90;53.00;;;;;;5030397;28;20438;-42
2021/01/24 01:13:02;;;;;;;1.30;1.20;;;12.10;52.60;;;;;;5029602;28;20821;-42
2021/01/24 01:15:27;;;;;;;1.50;1.40;;;12.30;52.70;;;;;;5030415;28;20439;-42
2021/01/24 01:17:53;;;;;;;1.67;1.57;;;12.50;52.20;;;;;;5029584;28;20198;-42
2021/01/24 01:20:19;;;;;;;1.70;1.60;;;12.60;51.60;;;;;;5031061;28;20197;-42
2021/01/24 01:22:45;;;;;;;1.37;1.30;;;12.60;50.50;;;;;;5029269;28;20247;-42
2021/01/24 01:25:11;;;;;;;1.50;1.40;;;12.50;50.80;;;;;;5030019;28;20440;-42
2021/01/24 01:27:37;;;;;;;1.80;1.70;;;12.30;50.90;;;;;;5029068;28;20264;-43
2021/01/24 01:30:05;;;;;;;1.70;1.60;;;12.30;51.60;;;;;;5023787;28;20963;-42
2021/01/24 01:32:31;;;;;;;1.60;1.50;;;12.00;50.80;;;;;;5017338;28;20830;-42
2021/01/24 01:34:56;;;;;;;1.80;1.70;;;11.70;51.50;;;;;;5029913;28;20461;-43
2021/01/24 01:37:22;;;;;;;1.53;1.43;;;11.60;51.50;;;;;;5030268;28;20197;-41
2021/01/24 01:39:47;;;;;;;1.80;1.70;;;11.30;52.00;;;;;;5026686;28;20200;-42
2021/01/24 01:42:14;;;;;;;1.80;1.70;;;11.10;52.30;;;;;;5030321;28;20291;-42
2021/01/24 01:44:49;;;;;;;1.97;1.87;;;10.80;52.60;;;;;;5029307;28;20538;-41
2021/01/24 01:47:21;;;;;;;2.20;2.10;;;10.60;53.30;;;;;;5028483;28;20860;-42
2021/01/24 01:49:47;;;;;;;2.23;2.07;;;10.40;53.60;;;;;;5023087;28;20428;-42
2021/01/24 01:52:13;;;;;;;2.47;2.30;;;10.20;54.00;;;;;;5031486;28;20490;-42
2021/01/24 01:54:43;;;;;;;2.07;1.97;;;10.10;54.60;;;;;;5030134;28;20198;-42
2021/01/24 01:57:09;;;;;;;2.63;2.43;;;10.00;54.70;;;;;;5025893;28;20585;-41
2021/01/24 01:59:34;;;;;;;2.20;2.00;;;9.90;56.00;;;;;;5029583;28;20468;-42
2021/01/24 02:02:21;;;;;;;2.60;2.40;;;9.70;56.10;;;;;;5028028;28;20554;-42
2021/01/24 02:04:56;;;;;;;2.50;2.30;;;9.60;56.50;;;;;;5028676;28;20351;-42
2021/01/24 02:07:30;;;;;;;2.10;1.93;;;9.60;56.50;;;;;;5028748;28;20432;-42
2021/01/24 02:10:09;;;;;;;2.13;1.93;;;9.40;56.70;;;;;;5033967;28;20444;-41
2021/01/24 02:13:00;;;;;;;2.03;1.90;;;9.30;57.10;;;;;;5028983;28;20575;-42
2021/01/24 02:15:28;;;;;;;2.23;1.80;;;9.20;57.50;;;;;;5025581;28;20456;-41
2021/01/24 02:18:03;;;;;;;1.50;1.40;;;9.00;57.80;;;;;;5029532;28;20490;-42
2021/01/24 02:21:05;;;;;;;1.70;1.23;;;8.90;58.00;;;;;;5033953;28;20534;-42
2021/01/24 02:23:32;;;;;;;2.40;1.30;;;8.60;58.30;;;;;;5026035;28;20587;-41
2021/01/24 02:26:09;;;;;;;1.20;1.10;;;8.20;58.90;;;;;;5026760;28;20451;-41
2021/01/24 02:28:43;;;;;;;1.23;0.97;;;7.70;59.80;;;;;;5031179;28;20475;-41
2021/01/24 02:31:10;;;;;;;0.80;0.80;;;7.30;60.50;;;;;;5033180;28;20431;-41
2021/01/24 02:33:38;;;;;;;0.73;0.73;;;7.10;61.90;;;;;;5029564;28;20499;-41
2021/01/24 02:36:07;;;;;;;0.80;0.70;;;6.70;62.30;;;;;;5033626;28;20481;-41
2021/01/24 02:38:36;;;;;;;0.70;0.70;;;6.70;62.80;;;;;;5032784;28;20772;-41
2021/01/24 02:41:02;;;;;;;1.10;0.60;;;6.80;63.30;;;;;;5033545;28;21087;-41
2021/01/24 02:43:28;;;;;;;0.60;0.60;;;6.70;62.40;;;;;;5032880;28;20432;-41
2021/01/24 02:45:54;;;;;;;0.60;0.60;;;6.90;62.50;;;;;;5027330;28;20436;-41
2021/01/24 02:48:20;;;;;;;0.50;0.50;;;6.90;61.90;;;;;;5032676;28;20443;-42
2021/01/24 02:50:47;;;;;;;0.50;0.47;;;7.20;61.50;;;;;;5030128;28;20482;-41
2021/01/24 02:53:13;;;;;;;0.57;0.50;;;7.00;60.20;;;;;;5042145;28;20589;-41
2021/01/24 02:55:40;;;;;;;0.50;0.50;;;7.10;60.60;;;;;;5028069;28;20824;-41
2021/01/24 02:58:06;;;;;;;0.60;0.47;;;7.20;60.40;;;;;;5028524;28;20470;-41
2021/01/24 03:00:31;;;;;;;0.60;0.50;;;7.30;60.00;;;;;;5031600;28;20808;-41
2021/01/24 03:02:57;;;;;;;0.53;0.53;;;7.40;59.50;;;;;;5031068;28;20268;-42
2021/01/24 03:05:24;;;;;;;0.70;0.70;;;7.30;58.90;;;;;;5021820;28;20303;-41
2021/01/24 03:07:50;;;;;;;0.63;0.60;;;7.30;59.10;;;;;;5032356;28;20284;-41
2021/01/24 03:10:16;;;;;;;0.90;0.70;;;7.50;58.50;;;;;;5030951;28;20463;-41
2021/01/24 03:12:58;;;;;;;0.60;0.60;;;7.10;57.90;;;;;;5031807;28;20487;-41
2021/01/24 03:15:25;;;;;;;0.87;0.87;;;7.10;58.00;;;;;;5033005;28;20194;-41
2021/01/24 03:17:53;;;;;;;0.80;0.70;;;7.10;57.90;;;;;;5032097;28;20531;-41
2021/01/24 03:20:19;;;;;;;0.70;0.60;;;7.10;57.80;;;;;;5032603;28;20436;-41
2021/01/24 03:22:47;;;;;;;0.63;0.60;;;7.30;57.70;;;;;;5030574;28;20482;-41
2021/01/24 03:25:13;;;;;;;1.00;0.90;;;7.60;57.20;;;;;;5029116;28;20486;-41
2021/01/24 03:27:40;;;;;;;1.07;0.90;;;7.40;56.30;;;;;;5032085;28;20935;-41
2021/01/24 03:30:06;;;;;;;0.83;0.83;;;7.30;56.90;;;;;;5033266;28;20451;-41
2021/01/24 03:32:32;;;;;;;1.03;1.03;;;7.00;57.10;;;;;;5023198;28;20541;-41
2021/01/24 03:34:57;;;;;;;2.03;1.13;;;6.90;58.20;;;;;;5025170;28;20437;-41
2021/01/24 03:37:23;;;;;;;1.93;1.73;;;6.70;58.60;;;;;;5029101;28;20436;-41
2021/01/24 03:39:49;;;;;;;1.57;1.47;;;6.50;58.50;;;;;;5026794;28;20288;-41
2021/01/24 03:42:14;;;;;;;1.80;1.70;;;6.60;58.70;;;;;;5032003;28;20288;-41
2021/01/24 03:44:40;;;;;;;1.90;1.70;;;6.60;57.90;;;;;;5031682;28;20202;-41
2021/01/24 03:47:05;;;;;;;1.93;1.60;;;6.70;57.40;;;;;;5032074;28;20221;-41
2021/01/24 03:49:31;;;;;;;2.60;2.10;;;6.80;56.90;;;;;;5028534;28;20653;-41
2021/01/24 03:51:56;;;;;;;2.70;2.50;;;6.70;56.30;;;;;;5030127;28;20224;-41
2021/01/24 03:54:22;;;;;;;3.13;2.00;;;6.60;55.80;;;;;;5041098;28;20237;-41
2021/01/24 03:56:47;;;;;;;3.27;2.97;;;6.30;55.40;;;;;;5018339;28;20679;-41
2021/01/24 03:59:13;;;;;;;2.83;2.63;;;6.30;55.30;;;;;;5031314;28;20223;-41
2021/01/24 04:01:39;;;;;;;2.60;2.40;;;6.50;55.10;;;;;;5029195;28;20577;-41
2021/01/24 04:04:04;;;;;;;3.60;2.27;;;6.60;54.30;;;;;;5022332;28;20242;-41
2021/01/24 04:06:30;;;;;;;5.53;2.33;;;6.40;54.50;;;;;;5026365;28;20201;-42
2021/01/24 04:08:56;;;;;;;2.53;1.87;;;6.50;54.40;;;;;;5028600;28;20330;-41
2021/01/24 04:11:22;;;;;;;2.83;2.53;;;6.60;54.70;;;;;;5031415;28;20188;-41
2021/01/24 04:13:47;;;;;;;2.03;1.87;;;6.60;54.60;;;;;;5023298;28;20202;-41
2021/01/24 04:16:13;;;;;;;2.40;2.10;;;6.70;55.00;;;;;;5025522;28;20440;-41
2021/01/24 04:18:39;;;;;;;1.73;1.63;;;6.70;55.00;;;;;;5030666;28;20189;-41
2021/01/24 04:21:04;;;;;;;2.30;1.60;;;6.40;54.70;;;;;;5030034;28;20194;-41
2021/01/24 04:23:30;;;;;;;1.73;1.60;;;6.20;54.90;;;;;;5030276;28;20212;-41
2021/01/24 04:25:57;;;;;;;2.07;1.90;;;6.00;55.20;;;;;;5030641;28;20205;-41
2021/01/24 04:28:22;;;;;;;1.77;1.67;;;5.90;55.60;;;;;;5020825;28;20471;-41
2021/01/24 04:30:48;;;;;;;3.07;2.00;;;5.80;55.40;;;;;;5028815;28;20513;-41
2021/01/24 04:33:14;;;;;;;4.40;1.70;;;5.70;55.40;;;;;;5025659;28;21180;-41
2021/01/24 04:35:39;;;;;;;2.30;2.10;;;5.80;55.90;;;;;;5030978;28;20186;-41
2021/01/24 04:38:05;;;;;;;2.50;1.70;;;5.70;55.90;;;;;;5020771;28;20707;-41
2021/01/24 04:40:31;;;;;;;1.57;1.47;;;5.60;56.00;;;;;;5031395;28;20201;-41
2021/01/24 04:42:56;;;;;;;1.87;1.77;;;5.80;56.30;;;;;;5030794;28;20649;-41
2021/01/24 04:45:22;;;;;;;3.00;2.13;;;5.70;56.40;;;;;;5029862;28;20190;-41
2021/01/24 04:47:50;;;;;;;2.40;2.07;;;5.70;56.40;;;;;;5028597;28;20196;-41
2021/01/24 04:50:17;;;;;;;2.30;2.10;;;5.70;56.50;;;;;;5030877;28;20799;-41
2021/01/24 04:52:43;;;;;;;1.83;1.73;;;6.00;56.40;;;;;;5029262;28;20479;-41
2021/01/24 04:55:09;;;;;;;2.47;2.27;;;6.00;55.70;;;;;;5030233;28;20590;-41
2021/01/24 04:57:35;;;;;;;3.30;2.20;;;6.00;55.60;;;;;;5027192;28;20519;-42
2021/01/24 05:00:03;;;;;;;2.30;1.90;;;6.10;55.10;;;;;;5029407;28;20456;-41
2021/01/24 05:02:29;;;;;;;4.60;2.00;;;5.70;55.00;;;;;;5024569;28;20489;-41
2021/01/24 05:04:54;;;;;;;3.67;2.20;;;5.40;54.80;;;;;;5029219;28;20432;-41
2021/01/24 05:07:20;;;;;;;2.10;1.90;;;5.80;55.30;;;;;;5027794;28;21217;-41
2021/01/24 05:09:47;;;;;;;3.40;1.70;;;5.90;54.20;;;;;;5024713;28;20232;-41
2021/01/24 05:12:13;;;;;;;1.97;1.70;;;5.80;53.60;;;;;;5030510;28;20209;-41
2021/01/24 05:14:40;;;;;;;2.23;1.53;;;5.90;53.60;;;;;;5021824;28;20432;-41
2021/01/24 05:17:05;;;;;;;1.50;1.40;;;5.80;53.30;;;;;;5027089;28;20439;-41
2021/01/24 05:19:35;;;;;;;2.13;1.93;;;5.90;52.90;;;;;;5029589;28;20527;-41
2021/01/24 05:22:03;;;;;;;2.60;2.10;;;5.90;52.50;;;;;;5022360;28;20218;-41
2021/01/24 05:24:30;;;;;;;2.97;1.83;;;5.70;51.80;;;;;;5027876;28;20924;-41
2021/01/24 05:27:05;;;;;;;1.90;1.63;;;5.30;50.60;;;;;;5017884;28;20441;-41
2021/01/24 05:29:31;;;;;;;1.83;1.47;;;5.50;51.20;;;;;;5014123;28;20436;-42
2021/01/24 05:31:59;;;;;;;1.70;1.27;;;5.30;50.90;;;;;;5029059;28;20552;-41
2021/01/24 05:34:26;;;;;;;2.87;1.43;;;5.20;51.20;;;;;;5027671;28;20240;-41
2021/01/24 05:36:52;;;;;;;1.70;1.60;;;5.20;51.70;;;;;;5030271;28;20490;-41
2021/01/24 05:39:18;;;;;;;2.10;1.80;;;5.40;51.60;;;;;;5030319;28;20444;-41
2021/01/24 05:41:52;;;;;;;2.07;1.50;;;5.30;51.70;;;;;;5029442;28;20923;-41
2021/01/24 05:44:19;;;;;;;1.80;1.70;;;5.20;52.30;;;;;;5024170;28;20487;-41
2021/01/24 05:46:45;;;;;;;2.00;1.87;;;5.20;52.80;;;;;;5023400;28;20436;-41
2021/01/24 05:49:12;;;;;;;2.67;1.80;;;5.10;52.70;;;;;;5027691;28;20462;-41
2021/01/24 05:51:38;;;;;;;2.20;2.00;;;5.00;53.10;;;;;;5026676;28;20501;-41
2021/01/24 05:54:04;;;;;;;2.37;2.17;;;5.20;53.40;;;;;;5027386;28;20637;-41
2021/01/24 05:56:29;;;;;;;2.23;1.80;;;5.40;54.10;;;;;;5029146;28;20535;-42
2021/01/24 05:58:57;;;;;;;4.63;2.47;;;5.30;54.50;;;;;;5029659;28;20968;-41
2021/01/24 06:01:25;;;;;;;3.33;2.60;;;5.30;55.00;;;;;;5029492;28;20563;-41
2021/01/24 06:03:53;;;;;;;2.13;1.93;;;5.10;55.80;;;;;;5022083;28;20445;-41
2021/01/24 06:06:19;;;;;;;3.90;2.00;;;5.00;56.00;;;;;;5029994;28;21180;-41
2021/01/24 06:08:44;;;;;;;3.57;2.30;;;4.80;56.00;;;;;;5023482;28;20464;-41
2021/01/24 06:11:11;;;;;;;3.07;2.40;;;4.90;56.10;;;;;;5022878;28;20250;-41
2021/01/24 06:13:39;;;;;;;4.00;2.57;;;4.90;55.90;;;;;;5031850;28;20225;-41
2021/01/24 06:16:12;;;;;;;2.60;1.97;;;5.10;55.30;;;;;;5027628;28;20440;-41
2021/01/24 06:18:48;;;;;;;2.33;2.13;;;5.10;54.50;;;;;;5029389;28;20535;-41
2021/01/24 06:21:20;;;;;;;2.37;2.17;;;5.10;54.40;;;;;;5015695;28;20441;-41
2021/01/24 06:24:06;;;;;;;6.30;5.30;;;5.50;54.30;;;;;;5025270;28;20996;-42
2021/01/24 06:26:37;;;;;;;14.43;8.50;;;5.60;53.90;;;;;;5025873;28;20522;-42
2021/01/24 06:29:04;;;;;;;5.53;4.33;;;5.80;54.00;;;;;;5028906;28;20443;-42
2021/01/24 06:31:31;;;;;;;3.60;2.20;;;5.90;53.50;;;;;;5030220;28;20935;-41
2021/01/24 06:34:04;;;;;;;2.53;2.20;;;5.70;52.80;;;;;;5031471;28;20435;-42
2021/01/24 06:36:30;;;;;;;3.03;2.07;;;5.60;53.10;;;;;;5028577;28;20429;-42
2021/01/24 06:38:56;;;;;;;3.43;2.90;;;5.70;53.30;;;;;;5018880;28;20920;-42
2021/01/24 06:42:00;;;;;;;2.00;1.80;;;5.50;53.00;;;;;;5028645;28;20490;-42
2021/01/24 06:44:40;;;;;;;2.60;2.20;;;5.50;53.80;;;;;;4962174;28;20374;-42
2021/01/24 06:47:27;;;;;;;3.30;2.30;;;5.70;54.20;;;;;;4965163;28;20450;-42
2021/01/24 06:49:53;;;;;;;3.27;2.93;;;5.70;54.10;;;;;;5003488;28;20436;-42
2021/01/24 06:52:22;;;;;;;4.87;3.00;;;5.50;54.30;;;;;;5020658;28;21145;-42
2021/01/24 06:54:50;;;;;;;3.47;2.77;;;5.30;55.30;;;;;;5035243;28;20212;-42
2021/01/24 06:57:16;;;;;;;3.00;2.70;;;5.30;55.70;;;;;;5029935;28;20471;-42
2021/01/24 06:59:42;;;;;;;3.20;2.90;;;5.40;55.30;;;;;;5031490;28;20519;-42
2021/01/24 07:02:36;;;;;;;4.23;2.70;;;5.50;55.20;;;;;;5016037;28;20970;-42
2021/01/24 07:05:11;;;;;;;7.53;2.87;;;5.40;54.90;;;;;;5027244;28;20251;-41
2021/01/24 07:07:44;;;;;;;3.40;2.30;;;5.20;54.90;;;;;;5030441;28;20453;-42
2021/01/24 07:10:46;;;;;;;7.67;2.70;;;5.20;54.90;;;;;;5022194;28;20428;-41
2021/01/24 07:13:29;;;;;;;2.80;2.60;;;5.20;55.00;;;;;;5018856;28;20927;-42
2021/01/24 07:16:00;;;;;;;2.50;2.30;;;5.40;54.40;;;;;;5026938;28;20440;-42
2021/01/24 07:18:35;;;;;;;3.50;2.73;;;5.20;54.00;;;;;;5027003;28;20440;-42
2021/01/24 07:21:01;;;;;;;3.50;2.40;;;5.30;54.50;;;;;;5028093;28;20436;-42
2021/01/24 07:23:28;;;;;;;2.43;2.03;;;5.50;53.80;;;;;;5022523;28;20431;-42
2021/01/24 07:25:55;;;;;;;2.80;2.20;;;5.60;53.20;;;;;;5024721;28;20208;-42
2021/01/24 07:28:22;;;;;;;3.00;2.50;;;5.50;53.00;;;;;;5020959;28;20509;-42
2021/01/24 07:30:48;;;;;;;2.23;2.03;;;5.70;52.80;;;;;;5029074;28;20439;-42
2021/01/24 07:33:14;;;;;;;2.53;2.23;;;5.50;52.40;;;;;;5027212;28;20536;-42
2021/01/24 07:35:40;;;;;;;3.87;2.13;;;5.50;52.40;;;;;;5025688;28;21674;-42
2021/01/24 07:38:07;;;;;;;2.10;1.90;;;5.40;52.60;;;;;;5024597;28;20432;-42
2021/01/24 07:40:33;;;;;;;2.90;2.10;;;5.50;52.60;;;;;;5029215;28;20221;-41
2021/01/24 07:42:58;;;;;;;3.13;2.80;;;5.40;52.60;;;;;;5029857;28;20471;-42
2021/01/24 07:45:25;;;;;;;2.93;1.93;;;5.40;53.20;;;;;;5037598;28;20212;-42
2021/01/24 07:47:51;;;;;;;3.07;1.87;;;5.50;53.30;;;;;;5031091;28;20197;-42
2021/01/24 07:50:16;;;;;;;2.33;2.10;;;5.40;53.50;;;;;;5024795;28;20440;-41
2021/01/24 07:52:42;;;;;;;3.07;2.43;;;5.30;53.40;;;;;;5019192;28;20246;-42
2021/01/24 07:55:10;;;;;;;3.47;2.30;;;5.20;53.60;;;;;;5026592;28;20190;-41
2021/01/24 07:57:38;;;;;;;3.50;2.23;;;5.30;53.90;;;;;;5018773;28;20447;-41
2021/01/24 08:00:05;;;;;;;5.07;3.03;;;5.10;53.20;;;;;;5030807;28;20500;-41
2021/01/24 08:02:31;;;;;;;2.93;2.10;;;5.10;53.50;;;;;;5030487;28;20939;-41
2021/01/24 08:04:59;;;;;;;3.10;2.23;;;5.30;53.30;;;;;;5018165;28;20508;-41
2021/01/24 08:07:29;;;;;;;2.40;2.17;;;5.40;53.80;;;;;;5018538;28;20197;-41
2021/01/24 08:09:55;;;;;;;3.70;2.73;;;5.90;52.60;;;;;;5017457;28;20457;-41
2021/01/24 08:12:22;;;;;;;2.50;2.30;;;6.30;52.00;;;;;;5023110;28;20527;-41
2021/01/24 08:14:47;;;;;;;3.70;2.40;;;6.90;50.50;;;;;;5021985;28;20432;-41
2021/01/24 08:17:16;;;;;;;2.30;2.10;;;6.80;49.40;;;;;;5015150;28;20985;-41
2021/01/24 08:19:43;;;;;;;3.80;2.10;;;6.50;49.20;;;;;;5015996;28;20282;-41
2021/01/24 08:22:10;;;;;;;2.20;2.00;;;6.20;49.70;;;;;;5013979;28;20527;-41
2021/01/24 08:24:36;;;;;;;3.47;2.50;;;6.20;50.50;;;;;;5019712;28;20432;-41
2021/01/24 08:27:02;;;;;;;2.37;1.90;;;6.20;50.80;;;;;;5032378;28;20919;-41
2021/01/24 08:29:34;;;;;;;1.77;1.67;;;6.10;50.70;;;;;;5029875;28;20435;-41
2021/01/24 08:32:02;;;;;;;2.50;2.27;;;5.90;50.90;;;;;;5031931;28;20511;-41
2021/01/24 08:34:28;;;;;;;1.97;1.80;;;5.70;51.20;;;;;;5014229;28;20447;-41
2021/01/24 08:36:54;;;;;;;2.83;2.10;;;5.80;51.50;;;;;;5012533;28;20967;-41
2021/01/24 08:39:23;;;;;;;3.90;2.60;;;6.00;51.40;;;;;;5012145;28;20444;-41
2021/01/24 08:41:51;;;;;;;5.73;1.90;;;6.00;51.40;;;;;;5012367;28;20198;-41
2021/01/24 08:44:16;;;;;;;2.60;1.93;;;6.20;51.30;;;;;;5023016;28;20534;-41
2021/01/24 08:46:50;;;;;;;3.93;2.10;;;6.30;51.00;;;;;;5021652;28;20527;-41
2021/01/24 08:49:23;;;;;;;2.30;2.10;;;6.10;50.90;;;;;;5031506;28;20193;-41
2021/01/24 08:51:56;;;;;;;2.40;1.73;;;5.90;51.40;;;;;;5031145;28;20872;-41
2021/01/24 08:54:33;;;;;;;2.20;1.87;;;5.90;51.40;;;;;;5042144;28;20981;-41
2021/01/24 08:57:20;;;;;;;3.37;1.90;;;6.00;51.70;;;;;;5027792;28;20471;-41
2021/01/24 08:59:48;;;;;;;1.83;1.73;;;6.00;51.60;;;;;;5012268;28;20429;-41
2021/01/24 09:02:14;;;;;;;2.40;2.17;;;6.00;51.60;;;;;;5020173;28;20443;-41
2021/01/24 09:04:46;;;;;;;4.47;2.83;;;6.10;51.30;;;;;;5011299;28;20783;-42
2021/01/24 09:07:13;;;;;;;3.80;3.30;;;6.30;51.50;;;;;;5031536;28;20703;-41
2021/01/24 09:09:45;;;;;;;3.33;2.60;;;6.50;51.30;;;;;;5030991;28;20436;-41
2021/01/24 09:12:13;;;;;;;2.93;2.33;;;6.60;51.10;;;;;;5030874;28;20838;-41
2021/01/24 09:14:40;;;;;;;6.30;1.93;;;6.80;50.50;;;;;;5030554;28;20468;-41
2021/01/24 09:17:17;;;;;;;4.00;2.30;;;6.60;50.00;;;;;;5023276;28;20801;-41
2021/01/24 09:19:44;;;;;;;1.97;1.77;;;6.40;50.50;;;;;;5018893;28;20444;-41
2021/01/24 09:22:17;;;;;;;3.83;2.43;;;6.50;51.00;;;;;;5029901;28;20943;-41
2021/01/24 09:24:44;;;;;;;2.23;1.97;;;6.40;50.90;;;;;;5021907;28;20448;-41
2021/01/24 09:27:11;;;;;;;6.80;3.53;;;6.70;51.00;;;;;;5029149;28;20814;-41
2021/01/24 09:29:38;;;;;;;3.60;2.00;;;6.50;50.60;;;;;;5028421;28;20943;-41
2021/01/24 09:32:05;;;;;;;2.50;1.87;;;6.10;51.30;;;;;;5029017;28;20516;-41
2021/01/24 09:34:30;;;;;;;2.47;2.23;;;6.00;53.10;;;;;;5027345;28;20431;-41
2021/01/24 09:36:56;;;;;;;2.40;2.20;;;6.40;53.40;;;;;;5026567;28;20434;-41
2021/01/24 09:39:22;;;;;;;2.33;2.07;;;6.60;52.90;;;;;;5023504;28;20189;-41
2021/01/24 09:41:48;;;;;;;2.00;1.50;;;6.40;52.90;;;;;;5027284;28;20204;-42
2021/01/24 09:44:14;;;;;;;2.40;2.20;;;6.50;53.70;;;;;;5027727;28;20447;-42
2021/01/24 09:46:40;;;;;;;3.00;2.27;;;6.20;53.90;;;;;;5029110;28;20235;-42
2021/01/24 09:49:06;;;;;;;4.20;2.50;;;6.10;55.40;;;;;;5028295;28;20440;-41
2021/01/24 09:51:32;;;;;;;3.47;2.10;;;5.90;56.20;;;;;;5027052;28;20200;-41
2021/01/24 09:53:58;;;;;;;4.30;2.37;;;5.70;57.80;;;;;;5033441;28;20552;-42
2021/01/24 09:56:25;;;;;;;3.63;2.40;;;5.80;58.30;;;;;;5025942;28;20480;-42
2021/01/24 09:58:52;;;;;;;5.20;2.27;;;6.00;58.60;;;;;;5021783;28;20440;-42
2021/01/24 10:01:18;;;;;;;3.70;2.77;;;6.00;58.50;;;;;;5024406;28;20451;-42
2021/01/24 10:03:47;;;;;;;5.03;2.53;;;5.90;58.70;;;;;;5026522;28;20463;-42
2021/01/24 10:06:14;;;;;;;3.10;2.80;;;5.90;58.30;;;;;;5023751;28;20836;-42
2021/01/24 10:08:40;;;;;;;2.60;2.40;;;6.00;58.40;;;;;;5028186;28;20511;-42
2021/01/24 10:11:06;;;;;;;3.17;2.83;;;6.20;58.50;;;;;;5028594;28;20990;-42
2021/01/24 10:13:31;;;;;;;5.70;2.50;;;6.40;58.40;;;;;;5026454;28;20696;-41
2021/01/24 10:15:57;;;;;;;2.80;2.50;;;6.30;57.60;;;;;;5026623;28;20656;-41
2021/01/24 10:18:23;;;;;;;3.40;2.80;;;6.20;58.10;;;;;;5027994;28;20197;-42
2021/01/24 10:20:49;;;;;;;3.07;2.77;;;6.20;58.10;;;;;;5027851;28;20563;-41
2021/01/24 10:23:17;;;;;;;3.20;2.90;;;6.20;58.80;;;;;;5025144;28;20205;-42
2021/01/24 10:25:43;;;;;;;3.20;2.60;;;6.50;58.80;;;;;;5023193;28;20440;-41
2021/01/24 10:28:08;;;;;;;4.77;3.00;;;6.70;58.30;;;;;;5022383;28;20442;-41
2021/01/24 10:30:34;;;;;;;3.80;2.70;;;6.80;58.20;;;;;;5030731;28;20185;-41
2021/01/24 10:33:00;;;;;;;5.53;2.60;;;6.70;57.60;;;;;;5029864;28;20247;-41
2021/01/24 10:35:26;;;;;;;2.83;2.60;;;6.60;58.00;;;;;;5031785;28;20605;-41
2021/01/24 10:37:51;;;;;;;4.40;2.40;;;6.70;58.10;;;;;;5029635;28;20190;-42
2021/01/24 10:40:17;;;;;;;3.77;2.43;;;6.90;58.10;;;;;;5022087;28;20202;-42
2021/01/24 10:42:43;;;;;;;3.27;2.30;;;6.70;57.50;;;;;;5032368;28;20194;-42
2021/01/24 10:45:10;;;;;;;3.13;2.83;;;6.40;57.30;;;;;;5026962;28;20202;-42
2021/01/24 10:47:35;;;;;;;3.90;3.03;;;6.60;57.40;;;;;;5030812;28;20203;-42
2021/01/24 10:50:01;;;;;;;2.20;2.00;;;6.60;57.40;;;;;;5023598;28;20514;-42
2021/01/24 10:52:27;;;;;;;4.40;2.57;;;6.60;56.30;;;;;;5029270;28;20252;-42
2021/01/24 10:54:52;;;;;;;3.07;2.30;;;6.60;56.30;;;;;;5029414;28;20243;-42
2021/01/24 10:57:18;;;;;;;3.20;2.20;;;6.50;56.10;;;;;;5030083;28;20889;-42
2021/01/24 10:59:44;;;;;;;2.10;1.80;;;6.80;55.40;;;;;;5030776;28;20216;-42
2021/01/24 11:02:09;;;;;;;1.70;1.60;;;6.90;53.90;;;;;;5029529;28;20189;-43
2021/01/24 11:04:35;;;;;;;2.33;1.83;;;7.00;52.50;;;;;;5022839;28;20630;-42
2021/01/24 11:07:01;;;;;;;1.77;1.50;;;7.10;52.40;;;;;;5030912;28;20197;-42
2021/01/24 11:09:27;;;;;;;2.47;1.80;;;7.30;51.60;;;;;;5029818;28;20200;-42
2021/01/24 11:11:53;;;;;;;6.40;2.07;;;7.40;50.70;;;;;;5026199;28;20228;-42
2021/01/24 11:14:18;;;;;;;3.37;1.80;;;7.20;50.10;;;;;;5031495;28;20463;-42
2021/01/24 11:16:44;;;;;;;3.00;1.90;;;7.30;50.40;;;;;;5029955;28;20208;-42
2021/01/24 11:19:10;;;;;;;3.90;2.07;;;7.20;49.60;;;;;;5031055;28;20343;-42
2021/01/24 11:21:35;;;;;;;2.97;1.50;;;7.30;50.60;;;;;;5030205;28;20224;-42
2021/01/24 11:24:01;;;;;;;1.87;1.73;;;7.30;49.20;;;;;;5029500;28;20287;-42
2021/01/24 11:26:27;;;;;;;2.30;1.93;;;7.20;49.70;;;;;;5016366;28;20252;-42
2021/01/24 11:28:52;;;;;;;5.47;2.90;;;7.30;49.30;;;;;;5024215;28;20200;-42
2021/01/24 11:31:18;;;;;;;2.47;1.70;;;7.00;48.80;;;;;;5023454;28;20193;-42
2021/01/24 11:33:45;;;;;;;2.20;1.50;;;7.10;49.30;;;;;;5022337;28;20308;-42
2021/01/24 11:36:12;;;;;;;1.93;1.60;;;7.30;49.00;;;;;;5020145;28;20280;-42
2021/01/24 11:38:38;;;;;;;2.33;1.60;;;7.20;48.10;;;;;;5012481;28;20491;-42
2021/01/24 11:41:04;;;;;;;2.67;1.73;;;6.90;48.50;;;;;;5018385;28;20445;-42
2021/01/24 11:43:30;;;;;;;2.10;1.70;;;7.10;48.90;;;;;;5017293;28;20197;-41
2021/01/24 11:45:57;;;;;;;3.33;1.90;;;7.30;48.70;;;;;;5014049;28;20443;-42
2021/01/24 11:48:23;;;;;;;4.93;2.83;;;7.20;48.00;;;;;;5016662;28;20495;-42
2021/01/24 11:50:49;;;;;;;5.13;3.93;;;7.30;48.40;;;;;;5017826;28;20441;-42
2021/01/24 11:53:16;;;;;;;4.93;3.20;;;7.20;48.00;;;;;;5018594;28;20555;-42
2021/01/24 11:55:42;;;;;;;3.13;1.53;;;7.20;48.40;;;;;;5030108;28;20510;-42
2021/01/24 11:58:07;;;;;;;2.70;1.87;;;6.90;48.40;;;;;;5024379;28;20526;-42
2021/01/24 12:00:33;;;;;;;3.60;1.90;;;6.80;48.90;;;;;;5030101;28;20205;-42
2021/01/24 12:02:58;;;;;;;2.50;1.70;;;7.00;49.40;;;;;;5021108;28;20224;-42
2021/01/24 12:05:24;;;;;;;5.50;2.37;;;7.10;49.00;;;;;;5032422;28;20684;-42
2021/01/24 12:07:49;;;;;;;1.97;1.70;;;7.10;49.10;;;;;;5030942;28;20624;-42
2021/01/24 12:10:15;;;;;;;2.03;1.73;;;6.90;49.00;;;;;;5019616;28;20222;-42
2021/01/24 12:12:41;;;;;;;2.80;2.30;;;7.00;49.20;;;;;;5024471;28;20629;-42
2021/01/24 12:15:07;;;;;;;3.40;2.50;;;7.00;49.30;;;;;;5025958;28;20210;-42
2021/01/24 12:17:32;;;;;;;3.30;2.20;;;7.20;49.70;;;;;;5024641;28;20637;-42
2021/01/24 12:19:58;;;;;;;2.80;1.93;;;7.10;48.90;;;;;;5028421;28;20428;-42
2021/01/24 12:22:23;;;;;;;3.30;1.93;;;7.00;49.30;;;;;;5024782;28;20637;-42
2021/01/24 12:24:49;;;;;;;1.60;1.50;;;7.00;49.50;;;;;;5025525;28;20200;-42
2021/01/24 12:27:18;;;;;;;3.07;1.90;;;6.70;49.60;;;;;;5030693;28;20205;-42
2021/01/24 12:29:43;;;;;;;2.10;1.90;;;6.80;49.90;;;;;;5015982;28;20346;-42
2021/01/24 12:32:09;;;;;;;2.00;1.80;;;6.80;50.10;;;;;;5013702;28;20519;-42
2021/01/24 12:34:34;;;;;;;3.20;2.03;;;6.80;50.20;;;;;;5030565;28;20204;-42
2021/01/24 12:37:00;;;;;;;2.10;1.90;;;6.70;50.10;;;;;;5025464;28;20181;-42
2021/01/24 12:39:25;;;;;;;3.57;2.17;;;6.90;50.50;;;;;;5030204;28;20197;-42
2021/01/24 12:41:51;;;;;;;2.40;1.90;;;7.10;50.20;;;;;;5022355;28;20304;-42
2021/01/24 12:44:16;;;;;;;2.30;1.57;;;6.90;49.40;;;;;;5021126;28;20201;-42
2021/01/24 12:46:42;;;;;;;1.67;1.57;;;6.80;49.90;;;;;;5021014;28;20198;-42
2021/01/24 12:49:08;;;;;;;1.70;1.60;;;6.60;48.90;;;;;;5019162;28;20202;-42
2021/01/24 12:51:35;;;;;;;1.90;1.80;;;6.60;49.80;;;;;;5026312;28;20660;-42
2021/01/24 12:54:00;;;;;;;1.73;1.40;;;6.60;49.90;;;;;;5039254;28;20476;-42
2021/01/24 12:56:26;;;;;;;2.53;1.73;;;6.60;49.70;;;;;;5029913;28;20454;-43
2021/01/24 12:58:52;;;;;;;2.00;1.80;;;6.80;49.90;;;;;;5023055;28;20259;-42